createdAt,value
2022-10-02T00:00:41.162Z,9.00
2022-10-02T00:01:59.097Z,9.00
2022-10-02T00:03:16.979Z,9.00
2022-10-02T00:04:33.701Z,9.00
2022-10-02T00:05:51.570Z,9.00
2022-10-02T00:07:07.969Z,1.00
2022-10-02T00:08:24.497Z,9.00
2022-10-02T00:09:42.301Z,9.00
2022-10-02T00:10:58.950Z,9.00
2022-10-02T00:12:16.815Z,9.00
2022-10-02T00:13:34.624Z,9.00
2022-10-02T00:14:52.460Z,9.00
2022-10-02T00:16:10.352Z,9.00
2022-10-02T00:17:30.192Z,9.00
2022-10-02T00:18:48.016Z,9.00
2022-10-02T00:20:05.839Z,9.00
2022-10-02T00:21:23.684Z,9.00
2022-10-02T00:22:40.064Z,9.00
2022-10-02T00:23:56.720Z,9.00
2022-10-02T00:25:14.554Z,1.00
2022-10-02T00:26:35.042Z,9.00
2022-10-02T00:27:53.016Z,9.00
2022-10-02T00:29:10.825Z,1.00
2022-10-02T00:30:27.496Z,9.00
2022-10-02T00:31:43.892Z,9.00
2022-10-02T00:33:00.256Z,9.00
2022-10-02T00:34:16.616Z,1.00
2022-10-02T00:35:33.015Z,9.00
2022-10-02T00:36:49.669Z,1.00
2022-10-02T00:38:06.049Z,9.00
2022-10-02T00:39:23.869Z,9.00
2022-10-02T00:40:40.259Z,9.00
2022-10-02T00:41:58.091Z,9.00
2022-10-02T00:43:14.748Z,9.00
2022-10-02T00:44:31.148Z,9.00
2022-10-02T00:45:47.590Z,9.00
2022-10-02T00:47:04.039Z,9.00
2022-10-02T00:48:20.411Z,9.00
2022-10-02T00:49:37.055Z,9.00
2022-10-02T00:50:54.889Z,9.00
2022-10-02T00:52:11.270Z,9.00
2022-10-02T00:53:29.092Z,9.00
2022-10-02T00:54:46.941Z,9.00
2022-10-02T00:56:05.078Z,9.00
2022-10-02T00:57:25.373Z,9.00
2022-10-02T00:58:41.746Z,9.00
2022-10-02T00:59:58.144Z,9.00
2022-10-02T01:01:14.558Z,9.00
2022-10-02T01:02:31.259Z,9.00
2022-10-02T01:03:49.161Z,9.00
2022-10-02T01:05:05.528Z,9.00
2022-10-02T01:06:21.908Z,9.00
2022-10-02T01:07:39.206Z,9.00
2022-10-02T01:08:57.333Z,1.00
2022-10-02T01:10:13.698Z,9.00
2022-10-02T01:11:30.076Z,9.00
2022-10-02T01:12:47.926Z,9.00
2022-10-02T01:14:05.757Z,9.00
2022-10-02T01:15:23.847Z,9.00
2022-10-02T01:16:40.291Z,9.00
2022-10-02T01:17:56.688Z,1.00
2022-10-02T01:19:14.520Z,9.00
2022-10-02T01:20:34.688Z,1.00
2022-10-02T01:21:51.342Z,9.00
2022-10-02T01:23:07.719Z,9.00
2022-10-02T01:24:24.100Z,1.00
2022-10-02T01:25:40.469Z,9.00
2022-10-02T01:26:56.851Z,9.00
2022-10-02T01:28:15.591Z,9.00
2022-10-02T01:29:31.963Z,9.00
2022-10-02T01:30:48.322Z,9.00
2022-10-02T01:32:06.164Z,9.00
2022-10-02T01:33:22.556Z,9.00
2022-10-02T01:34:39.195Z,9.00
2022-10-02T01:35:55.554Z,9.00
2022-10-02T01:37:13.391Z,9.00
2022-10-02T01:38:31.223Z,9.00
2022-10-02T01:39:47.614Z,9.00
2022-10-02T01:41:04.260Z,9.00
2022-10-02T01:42:20.636Z,9.00
2022-10-02T01:43:37.016Z,1.00
2022-10-02T01:44:54.844Z,9.00
2022-10-02T01:46:11.292Z,9.00
2022-10-02T01:47:28.018Z,9.00
2022-10-02T01:48:44.373Z,9.00
2022-10-02T01:50:02.192Z,1.00
2022-10-02T01:51:18.585Z,9.00
2022-10-02T01:52:36.447Z,9.00
2022-10-02T01:53:53.109Z,9.00
2022-10-02T01:55:10.948Z,9.00
2022-10-02T01:56:28.788Z,9.00
2022-10-02T01:57:45.170Z,9.00
2022-10-02T01:59:03.000Z,9.00
2022-10-02T02:00:19.655Z,1.00
2022-10-02T02:01:36.064Z,1.00
2022-10-02T02:02:53.889Z,1.00
2022-10-02T02:04:10.253Z,9.00
2022-10-02T02:05:28.090Z,1.00
2022-10-02T02:06:44.758Z,9.00
2022-10-02T02:08:01.122Z,9.00
2022-10-02T02:09:17.522Z,1.00
2022-10-02T02:10:33.901Z,9.00
2022-10-02T02:11:50.340Z,1.00
2022-10-02T02:13:06.983Z,9.00
2022-10-02T02:14:24.803Z,9.00
2022-10-02T02:15:41.183Z,1.00
2022-10-02T02:16:57.634Z,1.00
2022-10-02T02:18:14.015Z,9.00
2022-10-02T02:19:32.114Z,9.00
2022-10-02T02:20:48.488Z,1.00
2022-10-02T02:22:04.890Z,9.00
2022-10-02T02:23:23.211Z,9.00
2022-10-02T02:24:39.597Z,9.00
2022-10-02T02:25:56.224Z,9.00
2022-10-02T02:27:12.617Z,9.00
2022-10-02T02:28:30.520Z,9.00
2022-10-02T02:29:46.867Z,9.00
2022-10-02T02:31:04.717Z,9.00
2022-10-02T02:32:21.380Z,9.00
2022-10-02T02:33:39.218Z,9.00
2022-10-02T02:34:55.569Z,9.00
2022-10-02T02:36:13.512Z,9.00
2022-10-02T02:37:29.869Z,9.00
2022-10-02T02:38:46.547Z,1.00
2022-10-02T02:40:04.361Z,9.00
2022-10-02T02:41:20.771Z,9.00
2022-10-02T02:42:37.130Z,9.00
2022-10-02T02:43:53.512Z,9.00
2022-10-02T02:45:10.161Z,9.00
2022-10-02T02:46:26.560Z,9.00
2022-10-02T02:47:42.929Z,1.00
2022-10-02T02:49:00.752Z,9.00
2022-10-02T02:50:17.114Z,1.00
2022-10-02T02:51:33.793Z,1.00
2022-10-02T02:52:50.157Z,9.00
2022-10-02T02:54:07.984Z,9.00
2022-10-02T02:55:24.348Z,1.00
2022-10-02T02:56:42.214Z,9.00
2022-10-02T02:57:58.859Z,9.00
2022-10-02T02:59:15.231Z,9.00
2022-10-02T03:00:31.621Z,1.00
2022-10-02T03:01:48.033Z,9.00
2022-10-02T03:03:04.368Z,9.00
2022-10-02T03:04:21.054Z,9.00
2022-10-02T03:05:37.427Z,9.00
2022-10-02T03:06:53.809Z,1.00
2022-10-02T03:08:11.632Z,1.00
2022-10-02T03:09:27.999Z,9.00
2022-10-02T03:10:46.138Z,9.00
2022-10-02T03:12:02.520Z,9.00
2022-10-02T03:13:18.871Z,9.00
2022-10-02T03:14:36.709Z,9.00
2022-10-02T03:15:53.162Z,9.00
2022-10-02T03:17:09.821Z,9.00
2022-10-02T03:18:26.194Z,9.00
2022-10-02T03:19:42.571Z,9.00
2022-10-02T03:20:58.976Z,1.00
2022-10-02T03:22:16.814Z,9.00
2022-10-02T03:23:33.451Z,9.00
2022-10-02T03:24:51.284Z,9.00
2022-10-02T03:26:07.673Z,1.00
2022-10-02T03:27:24.060Z,9.00
2022-10-02T03:28:56.767Z,9.00
2022-10-02T03:30:01.636Z,1.00
2022-10-02T03:31:18.115Z,9.00
2022-10-02T03:32:34.459Z,9.00
2022-10-02T03:33:52.293Z,1.00
2022-10-02T03:35:08.663Z,1.00
2022-10-02T03:36:26.826Z,9.00
2022-10-02T03:37:44.717Z,9.00
2022-10-02T03:39:23.578Z,9.00
2022-10-02T03:40:24.314Z,9.00
2022-10-02T03:41:42.175Z,9.00
2022-10-02T03:42:58.823Z,9.00
2022-10-02T03:44:15.199Z,1.00
2022-10-02T03:45:51.389Z,9.00
2022-10-02T03:46:52.880Z,9.00
2022-10-02T03:48:09.249Z,1.00
2022-10-02T03:49:25.945Z,9.00
2022-10-02T03:50:42.320Z,9.00
2022-10-02T03:51:58.716Z,9.00
2022-10-02T03:53:16.533Z,9.00
2022-10-02T03:54:32.902Z,1.00
2022-10-02T03:55:49.551Z,9.00
2022-10-02T03:57:05.953Z,9.00
2022-10-02T03:58:22.302Z,9.00
2022-10-02T03:59:40.143Z,9.00
2022-10-02T04:00:57.965Z,9.00
2022-10-02T04:02:16.114Z,1.00
2022-10-02T04:03:32.535Z,9.00
2022-10-02T04:04:48.891Z,9.00
2022-10-02T04:06:06.725Z,1.00
2022-10-02T04:07:23.138Z,9.00
2022-10-02T04:08:39.774Z,9.00
2022-10-02T04:09:56.166Z,9.00
2022-10-02T04:11:13.977Z,1.00
2022-10-02T04:12:32.327Z,9.00
2022-10-02T04:13:48.687Z,9.00
2022-10-02T04:15:05.349Z,9.00
2022-10-02T04:16:21.757Z,1.00
2022-10-02T04:17:39.626Z,9.00
2022-10-02T04:18:55.982Z,9.00
2022-10-02T04:20:14.119Z,9.00
2022-10-02T04:21:30.756Z,9.00
2022-10-02T04:22:47.150Z,1.00
2022-10-02T04:24:04.971Z,9.00
2022-10-02T04:25:21.409Z,9.00
2022-10-02T04:26:38.018Z,9.00
2022-10-02T04:27:54.848Z,1.00
2022-10-02T04:29:12.640Z,1.00
2022-10-02T04:30:30.525Z,9.00
2022-10-02T04:31:48.433Z,9.00
2022-10-02T04:33:06.266Z,9.00
2022-10-02T04:34:22.924Z,9.00
2022-10-02T04:35:39.462Z,1.00
2022-10-02T04:36:57.282Z,9.00
2022-10-02T04:38:15.119Z,9.00
2022-10-02T04:39:32.957Z,9.00
2022-10-02T04:40:49.698Z,9.00
2022-10-02T04:42:06.066Z,9.00
2022-10-02T04:43:23.896Z,9.00
2022-10-02T04:44:40.260Z,9.00
2022-10-02T04:45:58.258Z,9.00
2022-10-02T04:47:14.998Z,9.00
2022-10-02T04:48:32.823Z,9.00
2022-10-02T04:49:49.207Z,9.00
2022-10-02T04:51:07.076Z,9.00
2022-10-02T04:52:23.428Z,9.00
2022-10-02T04:53:40.080Z,9.00
2022-10-02T04:54:57.927Z,9.00
2022-10-02T04:56:15.768Z,9.00
2022-10-02T04:57:32.129Z,9.00
2022-10-02T04:58:52.417Z,9.00
2022-10-02T05:00:10.551Z,9.00
2022-10-02T05:01:28.382Z,9.00
2022-10-02T05:02:46.190Z,9.00
2022-10-02T05:04:04.277Z,9.00
2022-10-02T05:05:21.071Z,9.00
2022-10-02T05:06:39.112Z,9.00
2022-10-02T05:07:57.032Z,15.00
2022-10-02T05:09:14.907Z,5.00
2022-10-02T05:10:32.714Z,13.00
2022-10-02T05:11:49.374Z,13.00
2022-10-02T05:13:05.765Z,13.00
2022-10-02T05:14:23.595Z,13.00
2022-10-02T05:15:41.408Z,13.00
2022-10-02T05:16:57.784Z,10.00
2022-10-02T05:18:17.867Z,18.00
2022-10-02T05:19:34.510Z,10.00
2022-10-02T05:20:50.858Z,14.00
2022-10-02T05:22:07.243Z,7.00
2022-10-02T05:23:23.650Z,9.00
2022-10-02T05:24:40.309Z,13.00
2022-10-02T05:25:56.767Z,18.00
2022-10-02T05:27:14.609Z,13.00
2022-10-02T05:28:31.017Z,17.00
2022-10-02T05:29:48.841Z,16.00
2022-10-02T05:31:07.031Z,28.00
2022-10-02T05:32:24.850Z,36.00
2022-10-02T05:33:45.985Z,36.00
2022-10-02T05:35:03.897Z,29.00
2022-10-02T05:36:20.299Z,30.00
2022-10-02T05:37:36.958Z,43.00
2022-10-02T05:38:54.810Z,44.00
2022-10-02T05:40:11.182Z,48.00
2022-10-02T05:41:29.001Z,45.00
2022-10-02T05:42:46.888Z,54.00
2022-10-02T05:44:04.981Z,79.00
2022-10-02T05:45:21.370Z,102.00
2022-10-02T05:46:39.599Z,99.00
2022-10-02T05:47:56.310Z,90.00
2022-10-02T05:49:12.674Z,86.00
2022-10-02T05:50:30.784Z,99.00
2022-10-02T05:51:47.145Z,95.00
2022-10-02T05:53:04.986Z,113.00
2022-10-02T05:54:21.371Z,131.00
2022-10-02T05:55:39.212Z,141.00
2022-10-02T05:56:57.316Z,153.00
2022-10-02T05:58:15.177Z,172.00
2022-10-02T05:59:31.545Z,183.00
2022-10-02T06:00:49.417Z,216.00
2022-10-02T06:02:05.808Z,247.00
2022-10-02T06:03:23.975Z,261.00
2022-10-02T06:04:41.790Z,255.00
2022-10-02T06:05:58.168Z,286.00
2022-10-02T06:07:16.009Z,313.00
2022-10-02T06:08:32.409Z,318.00
2022-10-02T06:09:50.028Z,312.00
2022-10-02T06:11:07.811Z,345.00
2022-10-02T06:12:25.641Z,397.00
2022-10-02T06:13:43.576Z,407.00
2022-10-02T06:15:01.398Z,437.00
2022-10-02T06:16:18.094Z,487.00
2022-10-02T06:17:34.453Z,521.00
2022-10-02T06:18:52.323Z,497.00
2022-10-02T06:20:10.142Z,453.00
2022-10-02T06:21:27.982Z,461.00
2022-10-02T06:22:44.654Z,440.00
2022-10-02T06:24:02.483Z,443.00
2022-10-02T06:25:20.313Z,359.00
2022-10-02T06:26:38.605Z,305.00
2022-10-02T06:27:56.822Z,252.00
2022-10-02T06:29:18.771Z,209.00
2022-10-02T06:30:36.126Z,215.00
2022-10-02T06:31:54.023Z,198.00
2022-10-02T06:33:10.455Z,180.00
2022-10-02T06:34:26.879Z,206.00
2022-10-02T06:35:43.245Z,218.00
2022-10-02T06:37:01.077Z,228.00
2022-10-02T06:38:17.476Z,247.00
2022-10-02T06:39:35.317Z,266.00
2022-10-02T06:40:51.967Z,282.00
2022-10-02T06:42:09.799Z,341.00
2022-10-02T06:43:27.662Z,360.00
2022-10-02T06:44:45.507Z,359.00
2022-10-02T06:46:01.961Z,399.00
2022-10-02T06:47:20.068Z,453.00
2022-10-02T06:48:36.461Z,524.00
2022-10-02T06:49:54.294Z,590.00
2022-10-02T06:51:12.101Z,631.00
2022-10-02T06:52:32.233Z,649.00
2022-10-02T06:53:51.212Z,691.00
2022-10-02T06:55:09.073Z,717.00
2022-10-02T06:56:26.886Z,798.00
2022-10-02T06:57:43.287Z,910.00
2022-10-02T06:59:01.443Z,996.00
2022-10-02T07:00:19.280Z,1036.00
2022-10-02T07:01:37.105Z,1121.00
2022-10-02T07:02:53.557Z,1046.00
2022-10-02T07:04:11.394Z,815.00
2022-10-02T07:05:28.048Z,678.00
2022-10-02T07:06:45.868Z,645.00
2022-10-02T07:08:03.956Z,661.00
2022-10-02T07:09:21.780Z,575.00
2022-10-02T07:10:39.614Z,542.00
2022-10-02T07:11:56.265Z,536.00
2022-10-02T07:13:12.666Z,445.00
2022-10-02T07:14:30.486Z,382.00
2022-10-02T07:15:48.299Z,357.00
2022-10-02T07:17:06.119Z,403.00
2022-10-02T07:18:24.251Z,487.00
2022-10-02T07:19:42.071Z,636.00
2022-10-02T07:20:59.909Z,691.00
2022-10-02T07:22:42.761Z,802.00
2022-10-02T07:23:40.443Z,901.00
2022-10-02T07:24:58.572Z,1008.00
2022-10-02T07:26:16.410Z,1192.00
2022-10-02T07:27:34.224Z,1253.00
2022-10-02T07:28:50.604Z,1345.00
2022-10-02T07:30:08.454Z,1145.00
2022-10-02T07:31:25.149Z,1005.00
2022-10-02T07:32:41.515Z,831.00
2022-10-02T07:33:59.359Z,958.00
2022-10-02T07:35:17.245Z,1150.00
2022-10-02T07:36:35.362Z,1075.00
2022-10-02T07:37:52.227Z,970.00
2022-10-02T07:39:10.059Z,1072.00
2022-10-02T07:40:27.897Z,991.00
2022-10-02T07:41:45.750Z,1047.00
2022-10-02T07:43:03.567Z,1122.00
2022-10-02T07:44:20.231Z,1251.00
2022-10-02T07:45:38.120Z,1356.00
2022-10-02T07:46:55.929Z,1336.00
2022-10-02T07:48:13.780Z,1100.00
2022-10-02T07:49:31.629Z,1128.00
2022-10-02T07:50:49.780Z,1115.00
2022-10-02T07:52:07.612Z,974.00
2022-10-02T07:53:25.511Z,870.00
2022-10-02T07:54:43.362Z,717.00
2022-10-02T07:56:01.214Z,642.00
2022-10-02T07:57:20.059Z,679.00
2022-10-02T07:58:37.903Z,655.00
2022-10-02T07:59:55.751Z,610.00
2022-10-02T08:01:13.643Z,548.00
2022-10-02T08:02:31.533Z,625.00
2022-10-02T08:03:48.213Z,611.00
2022-10-02T08:05:06.035Z,787.00
2022-10-02T08:06:23.895Z,880.00
2022-10-02T08:07:41.717Z,822.00
2022-10-02T08:08:59.551Z,694.00
2022-10-02T08:10:17.655Z,599.00
2022-10-02T08:11:35.495Z,566.00
2022-10-02T08:12:53.319Z,653.00
2022-10-02T08:14:11.157Z,594.00
2022-10-02T08:15:29.009Z,527.00
2022-10-02T08:16:45.718Z,676.00
2022-10-02T08:18:22.780Z,837.00
2022-10-02T08:19:24.729Z,975.00
2022-10-02T08:20:41.151Z,1116.00
2022-10-02T08:21:57.528Z,1282.00
2022-10-02T08:23:14.172Z,1568.00
2022-10-02T08:24:32.010Z,1762.00
2022-10-02T08:25:48.427Z,5364.00
2022-10-02T08:27:06.296Z,6726.00
2022-10-02T08:28:24.225Z,7281.00
2022-10-02T08:29:40.885Z,3685.00
2022-10-02T08:30:59.062Z,3386.00
2022-10-02T08:32:16.950Z,7836.00
2022-10-02T08:33:34.778Z,7889.00
2022-10-02T08:34:52.634Z,2421.00
2022-10-02T08:36:09.293Z,2405.00
2022-10-02T08:37:27.664Z,2353.00
2022-10-02T08:38:45.484Z,2020.00
2022-10-02T08:40:01.937Z,2115.00
2022-10-02T08:41:19.768Z,2223.00
2022-10-02T08:42:36.466Z,2034.00
2022-10-02T08:43:54.290Z,1728.00
2022-10-02T08:45:23.040Z,1392.00
2022-10-02T08:46:43.320Z,1359.00
2022-10-02T08:48:01.168Z,1621.00
2022-10-02T08:49:19.240Z,1891.00
2022-10-02T08:50:37.108Z,1683.00
2022-10-02T08:51:53.496Z,2046.00
2022-10-02T08:53:11.347Z,2091.00
2022-10-02T08:54:29.178Z,1935.00
2022-10-02T08:55:47.340Z,1786.00
2022-10-02T08:57:05.166Z,2102.00
2022-10-02T08:58:23.009Z,2189.00
2022-10-02T08:59:40.876Z,3452.00
2022-10-02T09:00:58.831Z,2770.00
2022-10-02T09:02:15.567Z,1930.00
2022-10-02T09:03:33.371Z,1871.00
2022-10-02T09:04:51.242Z,3031.00
2022-10-02T09:06:09.134Z,2070.00
2022-10-02T09:07:28.305Z,2353.00
2022-10-02T09:08:46.475Z,1831.00
2022-10-02T09:10:04.305Z,2058.00
2022-10-02T09:11:22.177Z,2429.00
2022-10-02T09:12:40.045Z,1838.00
2022-10-02T09:13:57.879Z,2399.00
2022-10-02T09:15:16.001Z,3816.00
2022-10-02T09:16:34.349Z,2921.00
2022-10-02T09:17:52.447Z,2242.00
2022-10-02T09:19:10.286Z,2463.00
2022-10-02T09:20:28.118Z,4947.00
2022-10-02T09:21:46.239Z,1858.00
2022-10-02T09:23:04.093Z,2138.00
2022-10-02T09:24:21.928Z,2358.00
2022-10-02T09:25:39.749Z,2279.00
2022-10-02T09:26:57.598Z,2064.00
2022-10-02T09:28:15.783Z,1696.00
2022-10-02T09:29:33.639Z,1491.00
2022-10-02T09:30:50.007Z,1217.00
2022-10-02T09:32:07.880Z,1052.00
2022-10-02T09:33:25.692Z,902.00
2022-10-02T09:34:42.353Z,911.00
2022-10-02T09:36:00.179Z,839.00
2022-10-02T09:37:18.059Z,1088.00
2022-10-02T09:38:39.102Z,1249.00
2022-10-02T09:39:57.616Z,1215.00
2022-10-02T09:41:14.262Z,1311.00
2022-10-02T09:42:32.111Z,1778.00
2022-10-02T09:43:48.495Z,2350.00
2022-10-02T09:45:06.326Z,2827.00
2022-10-02T09:46:24.147Z,5266.00
2022-10-02T09:47:40.814Z,3815.00
2022-10-02T09:48:58.756Z,3275.00
2022-10-02T09:50:16.598Z,1926.00
2022-10-02T09:51:34.429Z,1548.00
2022-10-02T09:52:50.824Z,1404.00
2022-10-02T09:54:09.209Z,1265.00
2022-10-02T09:55:25.608Z,933.00
2022-10-02T09:56:43.451Z,627.00
2022-10-02T09:57:59.893Z,484.00
2022-10-02T09:59:17.702Z,753.00
2022-10-02T10:00:34.376Z,1377.00
2022-10-02T10:01:50.844Z,1846.00
2022-10-02T10:03:08.671Z,1879.00
2022-10-02T10:04:33.795Z,1923.00
2022-10-02T10:05:49.201Z,1946.00
2022-10-02T10:07:07.344Z,1901.00
2022-10-02T10:08:23.742Z,1864.00
2022-10-02T10:09:40.114Z,1718.00
2022-10-02T10:10:57.963Z,1580.00
2022-10-02T10:12:15.806Z,1286.00
2022-10-02T10:13:33.926Z,1112.00
2022-10-02T10:14:50.316Z,964.00
2022-10-02T10:16:08.244Z,983.00
2022-10-02T10:17:26.206Z,1606.00
2022-10-02T10:18:44.047Z,1755.00
2022-10-02T10:20:00.697Z,1756.00
2022-10-02T10:21:18.538Z,2442.00
2022-10-02T10:22:36.397Z,2497.00
2022-10-02T10:23:54.237Z,2230.00
2022-10-02T10:25:12.061Z,1752.00
2022-10-02T10:26:28.730Z,1667.00
2022-10-02T10:27:46.600Z,1848.00
2022-10-02T10:29:04.411Z,1786.00
2022-10-02T10:30:22.239Z,2410.00
2022-10-02T10:31:40.598Z,3957.00
2022-10-02T10:32:59.024Z,2403.00
2022-10-02T10:34:16.872Z,3340.00
2022-10-02T10:35:34.685Z,1865.00
2022-10-02T10:36:52.531Z,1982.00
2022-10-02T10:38:10.373Z,2478.00
2022-10-02T10:39:28.515Z,2725.00
2022-10-02T10:40:46.344Z,3549.00
2022-10-02T10:42:04.209Z,1991.00
2022-10-02T10:43:23.698Z,1763.00
2022-10-02T10:44:41.545Z,2402.00
2022-10-02T10:45:59.437Z,2558.00
2022-10-02T10:47:17.327Z,3135.00
2022-10-02T10:48:35.149Z,2592.00
2022-10-02T10:49:53.007Z,2918.00
2022-10-02T10:51:11.150Z,5072.00
2022-10-02T10:52:28.988Z,10739.00
2022-10-02T10:53:46.810Z,15059.00
2022-10-02T10:55:04.680Z,9667.00
2022-10-02T10:56:22.550Z,13669.00
2022-10-02T10:57:39.219Z,13662.00
2022-10-02T10:58:57.047Z,7145.00
2022-10-02T11:00:14.903Z,14524.00
2022-10-02T11:01:33.808Z,11563.00
2022-10-02T11:02:51.686Z,13030.00
2022-10-02T11:04:09.806Z,13690.00
2022-10-02T11:05:27.690Z,11899.00
2022-10-02T11:06:46.064Z,10146.00
2022-10-02T11:08:04.036Z,10239.00
2022-10-02T11:09:22.028Z,5743.00
2022-10-02T11:10:38.700Z,7018.00
2022-10-02T11:11:56.548Z,2084.00
2022-10-02T11:13:14.415Z,3291.00
2022-10-02T11:14:32.259Z,2957.00
2022-10-02T11:15:53.879Z,2241.00
2022-10-02T11:17:11.724Z,2272.00
2022-10-02T11:18:29.559Z,2732.00
2022-10-02T11:19:47.435Z,3663.00
2022-10-02T11:21:05.296Z,4686.00
2022-10-02T11:22:23.122Z,3748.00
2022-10-02T11:23:41.452Z,3220.00
2022-10-02T11:24:59.323Z,4852.00
2022-10-02T11:26:18.201Z,4822.00
2022-10-02T11:27:34.862Z,5790.00
2022-10-02T11:28:52.708Z,4166.00
2022-10-02T11:30:10.631Z,3560.00
2022-10-02T11:31:28.479Z,2707.00
2022-10-02T11:32:46.287Z,5012.00
2022-10-02T11:34:04.134Z,23429.00
2022-10-02T11:35:21.977Z,18360.00
2022-10-02T11:36:39.816Z,16144.00
2022-10-02T11:38:00.616Z,15057.00
2022-10-02T11:39:23.720Z,3899.00
2022-10-02T11:40:41.589Z,15278.00
2022-10-02T11:41:59.466Z,5939.00
2022-10-02T11:43:17.300Z,3457.00
2022-10-02T11:44:35.130Z,2934.00
2022-10-02T11:45:53.038Z,2392.00
2022-10-02T11:47:10.841Z,2534.00
2022-10-02T11:48:28.704Z,19831.00
2022-10-02T11:49:46.823Z,4603.00
2022-10-02T11:51:04.655Z,18866.00
2022-10-02T11:52:22.505Z,15804.00
2022-10-02T11:53:40.364Z,14329.00
2022-10-02T11:54:58.219Z,22540.00
2022-10-02T11:56:16.326Z,19511.00
2022-10-02T11:57:33.648Z,19094.00
2022-10-02T11:58:51.516Z,7836.00
2022-10-02T12:00:07.909Z,14544.00
2022-10-02T12:01:25.760Z,12466.00
2022-10-02T12:02:42.482Z,4260.00
2022-10-02T12:04:00.561Z,3162.00
2022-10-02T12:05:18.411Z,8063.00
2022-10-02T12:06:36.231Z,6710.00
2022-10-02T12:07:54.589Z,6599.00
2022-10-02T12:09:12.694Z,4188.00
2022-10-02T12:10:30.553Z,2687.00
2022-10-02T12:11:48.383Z,1975.00
2022-10-02T12:13:06.230Z,1643.00
2022-10-02T12:14:24.087Z,1609.00
2022-10-02T12:15:41.925Z,1502.00
2022-10-02T12:16:59.799Z,1314.00
2022-10-02T12:18:21.674Z,1142.00
2022-10-02T12:19:39.862Z,1017.00
2022-10-02T12:20:56.528Z,901.00
2022-10-02T12:22:14.372Z,860.00
2022-10-02T12:23:32.207Z,800.00
2022-10-02T12:24:54.096Z,768.00
2022-10-02T12:26:12.714Z,810.00
2022-10-02T12:27:30.531Z,866.00
2022-10-02T12:28:48.383Z,931.00
2022-10-02T12:30:06.232Z,1016.00
2022-10-02T12:31:24.163Z,1126.00
2022-10-02T12:32:40.804Z,1292.00
2022-10-02T12:33:58.623Z,1479.00
2022-10-02T12:35:16.494Z,1769.00
2022-10-02T12:36:34.323Z,2073.00
2022-10-02T12:37:52.173Z,2095.00
2022-10-02T12:39:10.093Z,2203.00
2022-10-02T12:40:27.914Z,2439.00
2022-10-02T12:41:44.288Z,4135.00
2022-10-02T12:43:02.135Z,3683.00
2022-10-02T12:44:20.506Z,6360.00
2022-10-02T12:45:38.391Z,9157.00
2022-10-02T12:46:56.209Z,8695.00
2022-10-02T12:48:14.615Z,10607.00
2022-10-02T12:49:32.721Z,7530.00
2022-10-02T12:50:50.560Z,3958.00
2022-10-02T12:52:08.429Z,7905.00
2022-10-02T12:53:26.270Z,6957.00
2022-10-02T12:54:44.101Z,6156.00
2022-10-02T12:56:00.775Z,19962.00
2022-10-02T12:57:18.591Z,4367.00
2022-10-02T12:58:36.472Z,3111.00
2022-10-02T12:59:56.931Z,2653.00
2022-10-02T13:01:13.366Z,2434.00
2022-10-02T13:02:56.071Z,2444.00
2022-10-02T13:03:53.893Z,5498.00
2022-10-02T13:05:11.727Z,7475.00
2022-10-02T13:06:29.955Z,2861.00
2022-10-02T13:07:48.275Z,4982.00
2022-10-02T13:09:06.150Z,3206.00
2022-10-02T13:10:23.959Z,9187.00
2022-10-02T13:11:41.837Z,10109.00
2022-10-02T13:12:59.675Z,5511.00
2022-10-02T13:14:17.517Z,8848.00
2022-10-02T13:15:36.239Z,7774.00
2022-10-02T13:16:54.238Z,6041.00
2022-10-02T13:18:12.064Z,5811.00
2022-10-02T13:19:29.914Z,6431.00
2022-10-02T13:20:47.734Z,7997.00
2022-10-02T13:22:05.604Z,10966.00
2022-10-02T13:23:23.695Z,11488.00
2022-10-02T13:24:42.051Z,5062.00
2022-10-02T13:25:59.858Z,9986.00
2022-10-02T13:27:17.744Z,2558.00
2022-10-02T13:28:35.557Z,4225.00
2022-10-02T13:29:53.406Z,13192.00
2022-10-02T13:31:11.325Z,9592.00
2022-10-02T13:32:29.219Z,3210.00
2022-10-02T13:33:47.544Z,4130.00
2022-10-02T13:35:05.656Z,6100.00
2022-10-02T13:36:23.470Z,3078.00
2022-10-02T13:37:41.332Z,2712.00
2022-10-02T13:38:59.171Z,2340.00
2022-10-02T13:40:17.871Z,1921.00
2022-10-02T13:41:36.246Z,1597.00
2022-10-02T13:42:54.236Z,1327.00
2022-10-02T13:44:12.066Z,1104.00
2022-10-02T13:45:29.927Z,915.00
2022-10-02T13:46:47.735Z,890.00
2022-10-02T13:48:04.427Z,887.00
2022-10-02T13:49:22.265Z,939.00
2022-10-02T13:50:38.646Z,1021.00
2022-10-02T13:51:56.466Z,1105.00
2022-10-02T13:53:14.357Z,1150.00
2022-10-02T13:54:32.458Z,1169.00
2022-10-02T13:55:50.336Z,1150.00
2022-10-02T13:57:08.159Z,3310.00
2022-10-02T13:58:26.001Z,1409.00
2022-10-02T13:59:42.388Z,1545.00
2022-10-02T14:01:00.785Z,1739.00
2022-10-02T14:02:18.612Z,1692.00
2022-10-02T14:03:36.503Z,1739.00
2022-10-02T14:04:54.318Z,1767.00
2022-10-02T14:06:12.164Z,1939.00
2022-10-02T14:07:28.563Z,2062.00
2022-10-02T14:08:46.422Z,2063.00
2022-10-02T14:10:04.520Z,1934.00
2022-10-02T14:11:23.400Z,1795.00
2022-10-02T14:12:41.234Z,1539.00
2022-10-02T14:14:02.495Z,1372.00
2022-10-02T14:15:21.296Z,1365.00
2022-10-02T14:16:39.698Z,1378.00
2022-10-02T14:17:56.466Z,1369.00
2022-10-02T14:19:14.364Z,1346.00
2022-10-02T14:20:30.726Z,1241.00
2022-10-02T14:21:48.558Z,1261.00
2022-10-02T14:23:06.409Z,1202.00
2022-10-02T14:24:24.528Z,1059.00
2022-10-02T14:25:42.356Z,961.00
2022-10-02T14:27:00.188Z,910.00
2022-10-02T14:28:16.609Z,1000.00
2022-10-02T14:29:34.493Z,976.00
2022-10-02T14:30:51.140Z,981.00
2022-10-02T14:32:09.508Z,927.00
2022-10-02T14:33:27.404Z,894.00
2022-10-02T14:34:45.710Z,914.00
2022-10-02T14:36:03.540Z,1443.00
2022-10-02T14:37:21.703Z,1810.00
2022-10-02T14:38:39.525Z,2919.00
2022-10-02T14:39:56.014Z,1710.00
2022-10-02T14:41:13.876Z,1804.00
2022-10-02T14:42:31.737Z,1696.00
2022-10-02T14:43:49.849Z,1522.00
2022-10-02T14:45:07.695Z,1463.00
2022-10-02T14:46:24.069Z,1352.00
2022-10-02T14:47:41.949Z,1198.00
2022-10-02T14:48:59.770Z,1133.00
2022-10-02T14:50:17.960Z,1049.00
2022-10-02T14:51:34.511Z,1003.00
2022-10-02T14:52:52.532Z,1021.00
2022-10-02T14:54:10.391Z,1133.00
2022-10-02T14:55:28.248Z,1272.00
2022-10-02T14:56:44.892Z,1489.00
2022-10-02T14:58:02.757Z,1446.00
2022-10-02T14:59:20.595Z,1355.00
2022-10-02T15:00:38.444Z,1240.00
2022-10-02T15:01:54.829Z,1188.00
2022-10-02T15:03:12.943Z,1177.00
2022-10-02T15:04:30.849Z,1158.00
2022-10-02T15:05:48.697Z,1190.00
2022-10-02T15:07:06.506Z,1274.00
2022-10-02T15:08:24.386Z,1243.00
2022-10-02T15:09:42.206Z,1264.00
2022-10-02T15:11:00.078Z,1216.00
2022-10-02T15:12:17.878Z,1134.00
2022-10-02T15:13:35.759Z,1095.00
2022-10-02T15:14:53.888Z,1100.00
2022-10-02T15:16:11.768Z,1067.00
2022-10-02T15:17:29.692Z,1641.00
2022-10-02T15:18:47.569Z,1847.00
2022-10-02T15:20:05.392Z,1947.00
2022-10-02T15:21:23.241Z,1968.00
2022-10-02T15:22:47.035Z,2033.00
2022-10-02T15:24:04.904Z,1927.00
2022-10-02T15:25:22.749Z,1675.00
2022-10-02T15:26:40.854Z,1799.00
2022-10-02T15:28:12.097Z,597.00
2022-10-02T15:29:21.404Z,1293.00
2022-10-02T15:30:39.227Z,944.00
2022-10-02T15:31:55.777Z,990.00
2022-10-02T15:33:12.406Z,842.00
2022-10-02T15:34:30.750Z,1201.00
2022-10-02T15:35:48.591Z,1189.00
2022-10-02T15:37:06.807Z,1182.00
2022-10-02T15:38:24.652Z,896.00
2022-10-02T15:39:42.463Z,887.00
2022-10-02T15:41:00.281Z,1122.00
2022-10-02T15:42:18.157Z,831.00
2022-10-02T15:43:35.980Z,1212.00
2022-10-02T15:44:54.103Z,1102.00
2022-10-02T15:46:11.978Z,1114.00
2022-10-02T15:47:29.799Z,871.00
2022-10-02T15:48:51.551Z,914.00
2022-10-02T15:50:10.233Z,976.00
2022-10-02T15:51:26.864Z,919.00
2022-10-02T15:52:43.351Z,906.00
2022-10-02T15:54:01.178Z,906.00
2022-10-02T15:55:20.015Z,900.00
2022-10-02T15:56:38.209Z,874.00
2022-10-02T15:57:56.170Z,854.00
2022-10-02T15:59:13.986Z,840.00
2022-10-02T16:00:31.890Z,837.00
2022-10-02T16:01:49.446Z,859.00
2022-10-02T16:03:07.681Z,854.00
2022-10-02T16:04:25.509Z,904.00
2022-10-02T16:05:43.350Z,948.00
2022-10-02T16:07:01.168Z,951.00
2022-10-02T16:08:19.114Z,898.00
2022-10-02T16:09:37.250Z,855.00
2022-10-02T16:10:53.636Z,856.00
2022-10-02T16:12:11.470Z,865.00
2022-10-02T16:13:29.330Z,768.00
2022-10-02T16:14:47.154Z,690.00